KEMK

East Breaks

East Breaks, Texas, USA
METAR KEMK 181340Z AUTO 23012KT 9SM BKN047 BKN060 21/20 A3009 RMK A01
Observed Flight Rules
Jan-18 @ 13:40 UTC (23 minutes ago) Visual Flight Rules
Wind Visibility Clouds
230° at 12 knots 9 miles
  • Broken at 4,700' AGL
  • Broken at 6,000' AGL
Temperatures Readings
Current 21°C / 70°F
Dewpoint 20°C / 68°F
Humidity 94%
Altimeter 30.09" Hg
Pressure 1018.92 hPa
Elevation 26
METAR KEMK 181340Z AUTO 23012KT 9SM BKN047 BKN060 21/20 A3009 RMK A01
Observed Flight Rules
Jan-18 @ 13:40 UTC
(23 minutes ago)
VFR
Wind Visibility
230° at 12 knots 9 miles
Clouds
  • Broken at 4,700' AGL
  • Broken at 6,000' AGL
Temperature Dewpoint
21°C / 70°F 20°C / 68°F
Humidity Altimeter Pressure
94% 30.09" Hg 1018.92 hPa